Time;durP1;ratioP1;P1;durP2;ratioP2;P2;SDS_P1;SDS_P2;PMS_P1;PMS_P2;Temp;Humidity;BMP_temperature;BMP_pressure;BME280_temperature;BME280_humidity;BME280_pressure;Samples;Min_cycle;Max_cycle;Signal;HPM_P1;HPM_P2
2022/05/04 00:00:23;;;;;;;13.05;3.55;;;7.70;99.90;;;;;;5106655;27;20044;-70
2022/05/04 00:02:49;;;;;;;11.63;3.80;;;7.70;99.90;;;;;;5061084;28;20430;-70
2022/05/04 00:05:14;;;;;;;11.95;3.72;;;7.70;99.90;;;;;;5090486;28;20031;-70
2022/05/04 00:07:40;;;;;;;10.75;3.97;;;7.70;99.90;;;;;;5088189;28;20346;-70
2022/05/04 00:10:07;;;;;;;14.50;3.97;;;7.70;99.90;;;;;;5074251;28;20493;-70
2022/05/04 00:12:34;;;;;;;14.23;3.47;;;7.60;99.90;;;;;;5072730;28;20074;-70
2022/05/04 00:15:00;;;;;;;12.98;4.57;;;7.60;99.90;;;;;;5088228;28;20040;-70
2022/05/04 00:17:26;;;;;;;12.65;4.55;;;7.60;99.90;;;;;;5087980;28;20036;-70
2022/05/04 00:19:51;;;;;;;11.13;3.47;;;7.60;99.90;;;;;;5087308;28;20378;-70
2022/05/04 00:22:18;;;;;;;11.40;3.85;;;7.60;99.90;;;;;;5088876;28;20036;-70
2022/05/04 00:24:45;;;;;;;10.00;4.00;;;7.60;99.90;;;;;;5073275;28;20503;-70
2022/05/04 00:27:10;;;;;;;8.07;3.90;;;7.60;99.90;;;;;;5086935;28;20468;-70
2022/05/04 00:29:36;;;;;;;11.30;3.90;;;7.60;99.90;;;;;;5070932;28;20184;-70
2022/05/04 00:32:02;;;;;;;9.73;3.50;;;7.60;99.90;;;;;;5103525;28;20028;-70
2022/05/04 00:34:28;;;;;;;12.40;3.85;;;7.60;99.90;;;;;;5072193;28;20071;-70
2022/05/04 00:36:54;;;;;;;10.48;3.80;;;7.60;99.90;;;;;;5073766;28;20040;-70
2022/05/04 00:39:20;;;;;;;13.00;3.97;;;7.60;99.90;;;;;;5088019;28;20111;-71
2022/05/04 00:41:45;;;;;;;12.20;3.55;;;7.60;99.90;;;;;;5070234;28;20040;-70
2022/05/04 00:44:11;;;;;;;9.32;4.03;;;7.60;99.90;;;;;;5052861;28;20044;-70
2022/05/04 00:46:37;;;;;;;7.22;3.03;;;7.70;99.90;;;;;;5074115;28;20034;-70
2022/05/04 00:49:03;;;;;;;11.68;4.20;;;7.70;99.90;;;;;;5089815;28;20043;-70
2022/05/04 00:51:28;;;;;;;8.70;3.45;;;7.70;99.90;;;;;;5072721;28;20054;-70
2022/05/04 00:53:54;;;;;;;11.88;3.53;;;7.60;99.90;;;;;;5088378;28;20055;-70
2022/05/04 00:56:20;;;;;;;10.70;3.92;;;7.60;99.90;;;;;;5089120;28;20320;-70
2022/05/04 00:58:55;;;;;;;7.20;3.50;;;7.60;99.90;;;;;;5072555;28;20073;-70
2022/05/04 01:01:27;;;;;;;12.73;3.80;;;7.60;99.90;;;;;;5087985;28;20047;-70
2022/05/04 01:03:56;;;;;;;12.32;3.75;;;7.60;99.90;;;;;;5072266;28;20040;-70
2022/05/04 01:06:23;;;;;;;9.75;3.63;;;7.60;99.90;;;;;;5104934;27;20503;-70
2022/05/04 01:08:50;;;;;;;9.20;3.67;;;7.60;99.90;;;;;;5072497;28;20332;-70
2022/05/04 01:11:19;;;;;;;10.48;3.70;;;7.60;99.90;;;;;;5087272;28;20036;-70
2022/05/04 01:13:59;;;;;;;9.25;3.80;;;7.60;99.90;;;;;;5089329;28;20397;-70
2022/05/04 01:16:26;;;;;;;8.88;3.33;;;7.60;99.90;;;;;;5099619;28;20040;-71
2022/05/04 01:18:51;;;;;;;7.25;3.25;;;7.60;99.90;;;;;;5070662;28;20047;-70
2022/05/04 01:21:17;;;;;;;9.85;3.60;;;7.60;99.90;;;;;;5087985;28;20405;-70
2022/05/04 01:23:43;;;;;;;12.15;3.88;;;7.60;99.90;;;;;;5088773;27;20035;-71
2022/05/04 01:26:09;;;;;;;9.38;3.08;;;7.60;99.90;;;;;;5087928;28;20646;-70
2022/05/04 01:28:35;;;;;;;10.73;3.90;;;7.60;99.90;;;;;;5088241;28;20035;-70
2022/05/04 01:31:00;;;;;;;10.73;3.63;;;7.60;99.90;;;;;;5064320;28;20088;-70
2022/05/04 01:33:26;;;;;;;10.57;3.58;;;7.60;99.90;;;;;;5071651;28;20130;-70
2022/05/04 01:35:52;;;;;;;11.35;3.38;;;7.50;99.90;;;;;;5087215;28;20039;-70
2022/05/04 01:38:18;;;;;;;7.50;3.33;;;7.50;99.90;;;;;;5085771;28;20036;-70
2022/05/04 01:40:43;;;;;;;12.18;3.80;;;7.50;99.90;;;;;;5104622;27;20488;-70
2022/05/04 01:43:09;;;;;;;9.60;3.97;;;7.50;99.90;;;;;;5070995;28;20038;-70
2022/05/04 01:45:35;;;;;;;9.82;3.40;;;7.50;99.90;;;;;;5087286;28;20444;-70
2022/05/04 01:48:00;;;;;;;10.93;3.67;;;7.50;99.90;;;;;;5104530;28;20051;-70
2022/05/04 01:50:26;;;;;;;11.02;3.38;;;7.50;99.90;;;;;;5070843;28;20053;-70
2022/05/04 01:52:52;;;;;;;11.43;3.67;;;7.50;99.90;;;;;;5087585;27;20051;-70
2022/05/04 01:55:18;;;;;;;8.68;3.38;;;7.50;99.90;;;;;;5087566;28;20042;-70
2022/05/04 01:57:43;;;;;;;8.50;3.42;;;7.50;99.90;;;;;;5088520;28;20043;-70
2022/05/04 02:00:09;;;;;;;11.93;3.33;;;7.50;99.90;;;;;;5088379;28;20039;-70
2022/05/04 02:02:36;;;;;;;7.25;3.30;;;7.40;99.90;;;;;;5085785;28;20050;-70
2022/05/04 02:05:04;;;;;;;8.15;3.50;;;7.50;99.90;;;;;;5088721;28;20114;-70
2022/05/04 02:07:29;;;;;;;7.18;3.15;;;7.50;99.90;;;;;;5105289;28;20038;-70
2022/05/04 02:09:56;;;;;;;8.70;3.33;;;7.40;99.90;;;;;;5085036;28;20400;-70
2022/05/04 02:12:22;;;;;;;11.80;3.92;;;7.50;99.90;;;;;;5069531;28;20043;-70
2022/05/04 02:14:48;;;;;;;9.40;3.38;;;7.50;99.90;;;;;;5081844;28;20039;-70
2022/05/04 02:17:13;;;;;;;7.63;3.05;;;7.50;99.90;;;;;;5079718;28;20453;-70
2022/05/04 02:19:39;;;;;;;9.15;3.33;;;7.50;99.90;;;;;;5071407;28;20331;-70
2022/05/04 02:22:05;;;;;;;10.98;3.60;;;7.50;99.90;;;;;;5086836;28;20031;-70
2022/05/04 02:24:30;;;;;;;10.20;3.63;;;7.40;99.90;;;;;;5069896;28;20063;-70
2022/05/04 02:26:56;;;;;;;7.55;3.22;;;7.50;99.90;;;;;;5088783;28;20032;-70
2022/05/04 02:29:22;;;;;;;10.73;3.80;;;7.40;99.90;;;;;;5070203;28;20048;-70
2022/05/04 02:31:48;;;;;;;10.80;3.53;;;7.40;99.90;;;;;;5086265;28;20035;-70
2022/05/04 02:34:13;;;;;;;8.43;3.33;;;7.40;99.90;;;;;;5068606;28;20101;-70
2022/05/04 02:39:23;;;;;;;10.52;3.47;;;7.40;99.90;;;;;;5085399;28;20134;-70
2022/05/04 02:41:51;;;;;;;9.38;3.28;;;7.40;99.90;;;;;;5050217;28;20143;-70
2022/05/04 02:44:18;;;;;;;9.50;3.25;;;7.40;99.90;;;;;;5087470;28;20130;-70
2022/05/04 02:46:44;;;;;;;12.02;3.85;;;7.40;99.90;;;;;;5069438;28;20035;-70
2022/05/04 02:49:09;;;;;;;10.13;4.07;;;7.40;99.90;;;;;;5069048;28;20116;-70
2022/05/04 02:51:35;;;;;;;10.95;3.55;;;7.40;99.90;;;;;;5086743;28;20131;-70
2022/05/04 02:54:01;;;;;;;13.98;3.67;;;7.30;99.90;;;;;;5081894;28;20079;-70
2022/05/04 02:56:26;;;;;;;12.30;3.78;;;7.30;99.90;;;;;;5062674;28;20541;-70
2022/05/04 02:58:53;;;;;;;9.77;3.63;;;7.30;99.90;;;;;;5087369;28;20320;-70
2022/05/04 03:04:06;;;;;;;11.10;3.65;;;7.30;99.90;;;;;;5087164;28;20047;-70
2022/05/04 03:06:33;;;;;;;7.32;3.72;;;7.20;99.90;;;;;;5088905;28;20543;-70
2022/05/04 03:08:58;;;;;;;12.18;3.60;;;7.20;99.90;;;;;;5075837;28;20126;-70
2022/05/04 03:14:08;;;;;;;10.75;3.30;;;7.20;99.90;;;;;;5088827;28;20469;-70
2022/05/04 03:16:35;;;;;;;9.30;3.35;;;7.20;99.90;;;;;;5088877;28;20046;-70
2022/05/04 03:19:05;;;;;;;6.90;3.53;;;7.20;99.90;;;;;;5090239;27;20043;-70
2022/05/04 03:21:31;;;;;;;6.88;3.75;;;7.20;99.90;;;;;;5088456;28;20031;-70
2022/05/04 03:23:57;;;;;;;8.82;3.75;;;7.10;99.90;;;;;;5073989;28;20400;-70
2022/05/04 03:26:24;;;;;;;11.70;4.07;;;7.20;99.90;;;;;;5088715;28;20286;-70
2022/05/04 03:28:50;;;;;;;12.02;3.58;;;7.20;99.90;;;;;;5072966;28;20403;-70
2022/05/04 03:31:16;;;;;;;9.57;4.25;;;7.10;99.90;;;;;;5072633;27;20043;-70
2022/05/04 03:33:43;;;;;;;11.88;3.80;;;7.10;99.90;;;;;;5090409;27;20508;-70
2022/05/04 03:36:09;;;;;;;7.65;3.88;;;7.10;99.90;;;;;;5089227;28;20911;-70
2022/05/04 03:38:35;;;;;;;13.55;4.22;;;7.10;99.90;;;;;;5074926;28;20043;-70
2022/05/04 03:41:01;;;;;;;12.25;3.65;;;7.10;99.90;;;;;;5087268;28;20032;-70
2022/05/04 03:43:26;;;;;;;9.65;3.92;;;7.10;99.90;;;;;;5090256;28;20108;-70
2022/05/04 03:45:53;;;;;;;14.30;4.25;;;7.10;99.90;;;;;;5089471;27;20488;-70
2022/05/04 03:48:19;;;;;;;7.70;3.90;;;7.10;99.90;;;;;;5073953;28;20603;-70
2022/05/04 03:50:46;;;;;;;11.25;3.75;;;7.00;99.90;;;;;;5087644;28;20040;-70
2022/05/04 03:53:13;;;;;;;10.50;3.92;;;7.00;99.90;;;;;;5074512;28;20052;-70
2022/05/04 03:55:39;;;;;;;8.25;4.40;;;7.00;99.90;;;;;;5089239;28;20052;-70
2022/05/04 03:58:05;;;;;;;14.38;4.28;;;7.00;99.90;;;;;;5089926;28;20047;-70
2022/05/04 04:00:31;;;;;;;7.25;3.22;;;7.00;99.90;;;;;;5072498;28;20043;-70
2022/05/04 04:02:56;;;;;;;8.68;3.42;;;7.00;99.90;;;;;;5049963;28;20035;-70
2022/05/04 04:05:23;;;;;;;14.80;3.78;;;7.00;99.90;;;;;;5075196;28;20039;-70
2022/05/04 04:07:49;;;;;;;13.95;3.97;;;7.00;99.90;;;;;;5105525;27;20031;-70
2022/05/04 04:10:15;;;;;;;8.55;3.47;;;7.00;99.90;;;;;;5090170;28;20041;-70
2022/05/04 04:12:41;;;;;;;15.07;4.43;;;6.90;99.90;;;;;;5089001;28;20043;-70
2022/05/04 04:15:07;;;;;;;11.60;3.80;;;7.00;99.90;;;;;;5073129;28;20084;-70
2022/05/04 04:17:33;;;;;;;10.77;3.95;;;7.00;99.90;;;;;;5053854;28;20093;-70
2022/05/04 04:22:43;;;;;;;15.25;4.20;;;7.00;99.90;;;;;;5087453;28;20050;-70
2022/05/04 04:25:09;;;;;;;9.45;4.05;;;7.00;99.90;;;;;;5089715;28;20387;-69
2022/05/04 04:27:35;;;;;;;11.98;3.42;;;7.00;99.90;;;;;;5086820;28;20097;-70
2022/05/04 04:30:01;;;;;;;12.55;4.40;;;7.00;99.90;;;;;;5089144;28;20043;-70
2022/05/04 04:32:27;;;;;;;10.80;4.85;;;7.00;99.90;;;;;;5088221;28;20165;-70
2022/05/04 04:34:52;;;;;;;15.75;4.35;;;7.10;99.90;;;;;;5072725;28;20096;-69
2022/05/04 04:37:18;;;;;;;12.13;4.22;;;7.10;99.90;;;;;;5087508;28;20035;-70
2022/05/04 04:39:44;;;;;;;13.13;4.10;;;7.10;99.90;;;;;;5088663;28;20055;-70
2022/05/04 04:42:12;;;;;;;13.40;4.30;;;7.10;99.90;;;;;;5088481;28;20035;-69
2022/05/04 04:44:38;;;;;;;20.60;4.50;;;7.10;99.90;;;;;;5078023;28;20388;-69
2022/05/04 04:47:04;;;;;;;7.43;4.13;;;7.10;99.90;;;;;;5102704;27;20063;-70
2022/05/04 04:49:30;;;;;;;10.85;3.78;;;7.20;99.90;;;;;;5089098;28;20040;-70
2022/05/04 04:51:56;;;;;;;12.50;3.80;;;7.10;99.90;;;;;;5071627;28;20504;-70
2022/05/04 04:54:22;;;;;;;8.45;4.18;;;7.20;99.90;;;;;;5071660;28;20126;-70
2022/05/04 04:56:47;;;;;;;14.40;4.18;;;7.20;99.90;;;;;;5088321;28;20173;-69
2022/05/04 04:59:14;;;;;;;14.02;4.07;;;7.20;99.90;;;;;;5088653;28;20035;-70
2022/05/04 05:01:39;;;;;;;15.02;4.47;;;7.20;99.90;;;;;;5089576;28;20038;-69
2022/05/04 05:04:05;;;;;;;7.47;3.95;;;7.20;99.90;;;;;;5070288;28;20389;-69
2022/05/04 05:06:34;;;;;;;9.63;3.75;;;7.30;99.90;;;;;;5073212;28;20449;-70
2022/05/04 05:09:00;;;;;;;12.98;3.90;;;7.30;99.90;;;;;;5069063;28;20091;-70
2022/05/04 05:11:25;;;;;;;5.97;3.25;;;7.40;99.90;;;;;;5046749;28;20076;-70
2022/05/04 05:16:35;;;;;;;12.38;4.13;;;7.40;99.90;;;;;;5088372;28;20036;-70
2022/05/04 05:19:02;;;;;;;9.43;4.13;;;7.50;99.90;;;;;;5070334;28;20054;-70
2022/05/04 05:21:28;;;;;;;9.73;4.05;;;7.50;99.90;;;;;;5088226;28;20143;-70
2022/05/04 05:23:53;;;;;;;11.85;4.07;;;7.50;99.90;;;;;;5087245;28;20122;-70
2022/05/04 05:26:19;;;;;;;8.10;3.40;;;7.50;99.90;;;;;;5071118;28;20036;-69
2022/05/04 05:28:47;;;;;;;13.88;3.55;;;7.60;99.90;;;;;;5089553;28;20042;-70
2022/05/04 05:31:13;;;;;;;12.52;3.80;;;7.60;99.90;;;;;;5086947;28;20036;-70
2022/05/04 05:33:40;;;;;;;12.63;3.75;;;7.70;99.90;;;;;;5086198;28;20377;-70
2022/05/04 05:36:07;;;;;;;10.70;3.85;;;7.70;99.90;;;;;;5077281;28;20463;-70
2022/05/04 05:38:33;;;;;;;10.60;3.40;;;7.70;99.90;;;;;;5088857;28;20067;-70
2022/05/04 05:40:59;;;;;;;13.45;3.97;;;7.80;99.90;;;;;;5087169;28;20066;-70
2022/05/04 05:43:25;;;;;;;10.82;3.92;;;7.80;99.90;;;;;;5071223;28;20392;-69
2022/05/04 05:45:51;;;;;;;12.68;3.75;;;7.80;99.90;;;;;;5062420;28;20118;-70
2022/05/04 05:48:19;;;;;;;8.45;3.65;;;7.80;99.90;;;;;;5051817;28;20031;-70
2022/05/04 05:50:44;;;;;;;11.40;3.60;;;7.90;99.90;;;;;;5087908;28;20055;-69
2022/05/04 05:53:10;;;;;;;8.57;3.42;;;7.90;99.90;;;;;;5058460;28;20436;-70
2022/05/04 05:55:36;;;;;;;8.30;3.63;;;7.90;99.90;;;;;;5080365;28;20044;-70
2022/05/04 05:58:02;;;;;;;10.13;3.60;;;8.00;99.90;;;;;;5087102;28;20040;-70
2022/05/04 06:00:27;;;;;;;10.38;3.00;;;8.10;99.90;;;;;;5068695;28;20074;-70
2022/05/04 06:02:53;;;;;;;10.45;3.67;;;8.10;99.90;;;;;;5087223;28;20122;-69
2022/05/04 06:05:19;;;;;;;8.70;3.38;;;8.20;99.90;;;;;;5070057;28;21241;-70
2022/05/04 06:07:44;;;;;;;12.55;3.03;;;8.20;99.90;;;;;;5070683;28;20031;-70
2022/05/04 06:10:10;;;;;;;8.57;2.95;;;8.20;99.90;;;;;;5072000;28;20063;-70
2022/05/04 06:12:38;;;;;;;9.38;2.88;;;8.30;99.90;;;;;;5085671;28;20043;-70
2022/05/04 06:15:05;;;;;;;12.13;3.28;;;8.30;99.90;;;;;;5086943;28;20079;-70
2022/05/04 06:17:31;;;;;;;9.77;3.00;;;8.40;99.90;;;;;;5082993;28;20566;-70
2022/05/04 06:19:57;;;;;;;6.93;2.92;;;8.50;99.90;;;;;;5086426;28;20035;-70
2022/05/04 06:22:22;;;;;;;12.00;3.17;;;8.60;99.90;;;;;;5087062;28;20035;-70
2022/05/04 06:24:51;;;;;;;7.50;2.70;;;8.60;99.90;;;;;;5084445;28;20040;-70
2022/05/04 06:27:16;;;;;;;9.45;2.88;;;8.70;99.90;;;;;;5073820;28;20485;-70
2022/05/04 06:35:11;;;;;;;8.93;3.10;;;8.80;99.90;;;;;;5083842;28;20119;-70
2022/05/04 06:37:37;;;;;;;8.82;2.90;;;8.80;99.90;;;;;;5086257;28;20901;-70
2022/05/04 06:40:04;;;;;;;8.75;2.83;;;9.00;99.90;;;;;;5087794;28;20084;-70
2022/05/04 06:42:30;;;;;;;8.75;2.80;;;9.00;99.90;;;;;;5073929;28;20035;-70
2022/05/04 06:44:56;;;;;;;9.00;2.60;;;9.10;99.90;;;;;;5072551;28;20039;-70
2022/05/04 06:47:21;;;;;;;9.18;3.05;;;9.10;99.90;;;;;;5075166;28;20080;-70
2022/05/04 06:49:48;;;;;;;9.45;2.65;;;9.10;99.90;;;;;;5063152;28;20122;-70
2022/05/04 06:52:14;;;;;;;8.55;2.95;;;9.30;99.90;;;;;;5069250;28;20044;-70
2022/05/04 06:54:40;;;;;;;9.70;2.97;;;9.30;99.90;;;;;;5082126;28;20509;-70
2022/05/04 06:57:06;;;;;;;9.63;2.70;;;9.40;99.90;;;;;;5074960;28;20051;-70
2022/05/04 06:59:31;;;;;;;12.57;2.85;;;9.40;99.60;;;;;;5058346;28;20040;-70
2022/05/04 07:01:57;;;;;;;7.30;2.67;;;9.40;99.80;;;;;;5074341;28;20038;-70
2022/05/04 07:04:26;;;;;;;7.32;2.75;;;9.50;99.80;;;;;;5074576;28;20096;-70
2022/05/04 07:06:52;;;;;;;10.43;3.22;;;9.60;99.40;;;;;;5091442;28;20032;-70
2022/05/04 07:09:17;;;;;;;8.43;2.65;;;9.80;99.60;;;;;;5056699;28;20047;-70
2022/05/04 07:11:46;;;;;;;11.63;3.17;;;9.90;99.40;;;;;;5074723;28;20040;-70
2022/05/04 07:14:12;;;;;;;9.55;3.05;;;10.00;99.10;;;;;;5074917;28;20118;-70
2022/05/04 07:16:41;;;;;;;10.07;3.10;;;10.10;99.10;;;;;;5091189;28;20122;-70
2022/05/04 07:19:07;;;;;;;7.95;3.00;;;10.20;99.10;;;;;;5074957;28;20048;-70
2022/05/04 07:21:32;;;;;;;9.23;3.00;;;10.30;98.80;;;;;;5074473;28;20096;-70
2022/05/04 07:24:02;;;;;;;8.77;3.30;;;10.50;98.90;;;;;;5057098;28;20048;-71
2022/05/04 07:26:29;;;;;;;7.18;3.33;;;10.90;98.20;;;;;;5090882;28;20048;-70
2022/05/04 07:28:54;;;;;;;8.55;2.72;;;10.90;97.00;;;;;;5090610;28;20028;-71
2022/05/04 07:31:20;;;;;;;8.45;3.47;;;11.10;97.20;;;;;;5056785;28;20758;-70
2022/05/04 07:33:48;;;;;;;10.35;3.53;;;11.20;97.20;;;;;;5073417;28;20036;-71
2022/05/04 07:36:14;;;;;;;11.05;3.15;;;11.40;97.10;;;;;;5090223;28;20032;-70
2022/05/04 07:38:40;;;;;;;9.60;3.47;;;11.70;96.50;;;;;;5056535;28;20062;-71
2022/05/04 07:43:50;;;;;;;9.10;3.17;;;11.80;95.80;;;;;;5075757;28;20544;-70
2022/05/04 07:46:15;;;;;;;7.47;2.90;;;12.00;95.90;;;;;;5073407;28;20119;-70
2022/05/04 07:48:41;;;;;;;10.95;3.30;;;12.20;95.80;;;;;;5073187;28;20067;-71
2022/05/04 07:51:07;;;;;;;7.35;3.03;;;12.40;94.90;;;;;;5073550;28;20039;-71
2022/05/04 07:53:33;;;;;;;7.00;2.60;;;12.70;94.90;;;;;;5060334;28;20130;-70
2022/05/04 07:56:00;;;;;;;7.00;2.60;;;13.00;94.80;;;;;;5077646;28;20515;-71
2022/05/04 07:58:26;;;;;;;11.38;2.78;;;13.20;93.40;;;;;;5093857;28;20036;-70
2022/05/04 08:06:20;;;;;;;7.63;3.20;;;12.90;93.50;;;;;;5080161;28;20035;-70
2022/05/04 08:08:45;;;;;;;9.55;3.97;;;12.80;93.40;;;;;;5041618;28;20036;-70
2022/05/04 08:11:11;;;;;;;6.90;3.25;;;12.60;93.40;;;;;;5060567;28;20504;-70
2022/05/04 08:13:37;;;;;;;8.40;2.97;;;12.40;92.90;;;;;;5112947;28;20080;-71
2022/05/04 08:16:04;;;;;;;8.50;2.92;;;12.70;93.60;;;;;;5094682;28;20135;-71
2022/05/04 08:18:29;;;;;;;6.55;3.00;;;12.90;93.40;;;;;;5095016;28;20130;-70
2022/05/04 08:20:55;;;;;;;7.53;3.10;;;13.20;93.20;;;;;;5092669;28;20173;-70
2022/05/04 08:23:21;;;;;;;9.20;3.83;;;13.30;92.70;;;;;;5066610;28;20096;-71
2022/05/04 08:25:47;;;;;;;7.00;3.25;;;13.50;92.40;;;;;;5076769;28;20407;-71
2022/05/04 08:28:13;;;;;;;9.50;3.67;;;13.50;91.80;;;;;;5094079;28;20039;-71
2022/05/04 08:30:39;;;;;;;7.47;3.15;;;13.70;91.50;;;;;;5077740;28;20454;-70
2022/05/04 08:33:06;;;;;;;7.00;3.47;;;13.50;91.50;;;;;;5094143;28;20043;-70
2022/05/04 08:35:32;;;;;;;11.13;3.97;;;13.40;91.30;;;;;;5089733;28;20043;-70
2022/05/04 08:37:59;;;;;;;7.53;3.53;;;13.40;91.30;;;;;;5094862;28;20075;-70
2022/05/04 08:40:25;;;;;;;8.32;3.50;;;13.30;91.10;;;;;;5112156;28;20069;-71
2022/05/04 08:42:52;;;;;;;10.15;3.38;;;13.10;91.10;;;;;;5077481;28;20039;-71
2022/05/04 08:45:21;;;;;;;7.53;3.88;;;13.00;91.10;;;;;;5076248;28;20036;-70
2022/05/04 08:47:48;;;;;;;7.55;3.67;;;12.70;91.40;;;;;;5094109;28;20074;-70
2022/05/04 08:50:16;;;;;;;9.98;3.80;;;12.80;91.40;;;;;;5111277;28;20043;-70
2022/05/04 08:52:51;;;;;;;13.45;4.25;;;12.50;91.40;;;;;;5093348;28;20118;-71
2022/05/04 08:55:23;;;;;;;7.32;3.75;;;12.50;91.40;;;;;;5093547;28;20058;-70
2022/05/04 08:57:50;;;;;;;10.60;3.30;;;12.40;91.60;;;;;;5093316;28;20497;-70
2022/05/04 09:00:19;;;;;;;13.88;3.83;;;12.30;92.10;;;;;;5093921;28;20027;-71
2022/05/04 09:02:46;;;;;;;8.07;3.58;;;12.20;91.80;;;;;;5093656;28;20039;-71
2022/05/04 09:05:15;;;;;;;7.15;3.78;;;12.10;92.10;;;;;;5076156;28;20031;-71
2022/05/04 09:07:41;;;;;;;10.48;4.22;;;12.10;92.20;;;;;;5093608;28;20036;-71
2022/05/04 09:10:07;;;;;;;9.93;4.07;;;12.10;92.10;;;;;;5092612;28;20381;-71
2022/05/04 09:12:36;;;;;;;9.88;4.47;;;12.10;92.20;;;;;;5060213;28;20456;-70
2022/05/04 09:15:17;;;;;;;9.15;3.70;;;12.20;92.20;;;;;;5112005;28;20076;-69
2022/05/04 09:17:42;;;;;;;8.20;4.10;;;12.20;92.10;;;;;;5081393;28;20081;-71
2022/05/04 09:20:55;;;;;;;6.38;3.58;;;12.40;92.00;;;;;;5076050;28;20160;-70
2022/05/04 09:22:55;;;;;;;7.53;3.47;;;12.60;91.90;;;;;;5067735;28;20031;-71
2022/05/04 09:25:25;;;;;;;11.48;4.10;;;12.90;91.70;;;;;;5093247;28;20040;-70
2022/05/04 09:27:52;;;;;;;9.07;3.60;;;13.10;91.40;;;;;;5093209;28;20499;-71
2022/05/04 09:30:24;;;;;;;8.98;4.03;;;13.10;91.10;;;;;;5093155;28;20137;-71
2022/05/04 09:32:50;;;;;;;10.00;3.88;;;13.20;91.20;;;;;;5076225;28;20047;-70
2022/05/04 09:35:17;;;;;;;7.55;3.92;;;13.50;91.00;;;;;;5092975;28;20053;-71
2022/05/04 09:46:17;;;;;;;8.07;3.40;;;14.10;89.30;;;;;;5096967;28;20040;-71
2022/05/04 09:48:42;;;;;;;11.32;3.83;;;14.20;89.40;;;;;;5086757;28;20043;-71
2022/05/04 09:51:09;;;;;;;11.35;4.68;;;14.10;88.90;;;;;;5045222;28;20040;-71
2022/05/04 09:53:36;;;;;;;8.48;3.90;;;13.70;87.50;;;;;;5070515;28;20051;-71
2022/05/04 09:56:03;;;;;;;8.25;4.00;;;13.50;88.50;;;;;;5072055;28;20127;-71
2022/05/04 09:58:30;;;;;;;7.47;3.83;;;13.40;89.00;;;;;;5086258;28;20118;-70
2022/05/04 10:00:58;;;;;;;8.80;3.65;;;13.60;89.90;;;;;;5110574;28;20115;-71
2022/05/04 10:03:25;;;;;;;8.05;3.92;;;13.70;89.20;;;;;;5072845;28;20124;-70
2022/05/04 10:05:53;;;;;;;10.10;4.57;;;13.60;88.70;;;;;;5090124;28;20048;-71
2022/05/04 10:08:20;;;;;;;7.68;4.10;;;13.40;88.80;;;;;;5075471;28;20119;-71
2022/05/04 10:10:52;;;;;;;11.23;4.22;;;13.20;89.80;;;;;;5092461;28;20416;-71
2022/05/04 10:13:19;;;;;;;;;;;13.00;90.00;;;;;;5092561;28;20126;-71
2022/05/04 10:15:48;;;;;;;7.80;3.85;;;13.00;90.20;;;;;;5091225;28;19919;-70
2022/05/04 10:18:21;;;;;;;6.13;4.00;;;12.90;90.10;;;;;;5110866;28;20436;-71
2022/05/04 10:21:05;;;;;;;13.73;4.90;;;12.70;89.60;;;;;;5091870;28;20047;-70
2022/05/04 10:23:37;;;;;;;9.32;3.95;;;12.60;90.50;;;;;;5063199;28;20101;-70
2022/05/04 10:26:04;;;;;;;9.18;3.83;;;12.80;90.20;;;;;;5090570;28;20046;-70
2022/05/04 10:28:37;;;;;;;7.40;3.70;;;13.10;90.10;;;;;;5110077;28;20488;-70
2022/05/04 10:31:10;;;;;;;6.45;3.58;;;13.40;88.60;;;;;;5075108;28;20040;-71
2022/05/04 10:33:37;;;;;;;9.60;4.40;;;13.50;88.30;;;;;;5091965;28;20054;-70
2022/05/04 10:36:20;;;;;;;6.80;3.20;;;13.60;88.10;;;;;;5091876;28;20043;-70
2022/05/04 10:38:53;;;;;;;10.32;3.47;;;13.60;87.60;;;;;;5091812;28;20077;-71
2022/05/04 10:41:35;;;;;;;8.55;3.65;;;13.80;90.20;;;;;;5091814;28;20032;-71
2022/05/04 10:44:01;;;;;;;7.73;3.93;;;14.10;88.90;;;;;;5110183;28;20035;-71
2022/05/04 10:46:30;;;;;;;10.18;3.88;;;14.50;89.10;;;;;;5091912;28;20096;-71
2022/05/04 10:49:03;;;;;;;6.93;3.60;;;14.90;87.90;;;;;;5090304;28;20432;-71
2022/05/04 10:51:34;;;;;;;8.50;3.65;;;15.00;84.90;;;;;;5091348;28;20032;-71
2022/05/04 10:54:19;;;;;;;7.07;3.42;;;15.20;84.80;;;;;;5082634;28;20056;-71
2022/05/04 10:56:47;;;;;;;7.78;3.70;;;15.30;82.80;;;;;;5089058;28;20032;-71
2022/05/04 10:59:24;;;;;;;7.10;3.55;;;14.80;81.80;;;;;;5075211;28;20078;-71
2022/05/04 11:01:50;;;;;;;7.80;3.72;;;14.50;81.60;;;;;;5092200;28;20044;-71
2022/05/04 11:04:22;;;;;;;14.45;3.95;;;14.60;82.10;;;;;;5106282;28;20417;-71
2022/05/04 11:07:02;;;;;;;5.53;3.20;;;14.90;84.20;;;;;;5081769;28;20032;-71
2022/05/04 11:09:37;;;;;;;8.68;3.92;;;14.60;83.70;;;;;;5091612;28;20048;-71
2022/05/04 11:12:05;;;;;;;6.82;3.70;;;14.70;83.50;;;;;;5091862;28;20039;-71
2022/05/04 11:14:34;;;;;;;9.07;3.90;;;14.90;83.00;;;;;;5074823;28;20055;-71
2022/05/04 11:17:09;;;;;;;9.45;3.53;;;14.90;82.80;;;;;;5074590;28;20047;-71
2022/05/04 11:19:35;;;;;;;6.07;3.65;;;15.10;83.00;;;;;;5091359;28;20127;-71
2022/05/04 11:22:01;;;;;;;7.93;3.40;;;15.30;82.70;;;;;;5075208;28;20110;-71
2022/05/04 11:24:31;;;;;;;9.95;3.60;;;15.60;82.90;;;;;;5091563;28;20050;-71
2022/05/04 11:26:57;;;;;;;5.60;3.22;;;15.80;82.00;;;;;;5076167;28;20040;-71
2022/05/04 11:29:29;;;;;;;10.30;3.70;;;16.00;83.00;;;;;;5078595;28;20043;-71
2022/05/04 11:31:58;;;;;;;10.90;3.95;;;16.30;81.10;;;;;;5095314;28;20389;-71
2022/05/04 11:34:35;;;;;;;8.48;3.47;;;16.40;80.80;;;;;;5078460;28;20050;-71
2022/05/04 11:37:11;;;;;;;10.50;3.40;;;16.10;81.80;;;;;;5089679;28;20052;-71
2022/05/04 11:39:42;;;;;;;8.75;3.45;;;16.30;79.50;;;;;;5087409;28;20047;-71
2022/05/04 11:42:08;;;;;;;8.20;3.55;;;16.30;80.00;;;;;;5094591;28;20035;-71
2022/05/04 11:44:39;;;;;;;9.05;3.65;;;16.40;79.80;;;;;;5095022;28;20043;-71
2022/05/04 11:47:06;;;;;;;7.68;3.72;;;16.40;80.00;;;;;;5043196;28;20043;-71
2022/05/04 11:49:35;;;;;;;9.35;3.40;;;16.40;80.00;;;;;;5093729;28;20043;-71
2022/05/04 11:52:02;;;;;;;12.40;4.25;;;16.70;81.80;;;;;;5078348;28;20043;-71
2022/05/04 11:54:33;;;;;;;8.40;3.10;;;16.90;80.10;;;;;;5077704;28;20058;-71
2022/05/04 11:57:11;;;;;;;10.05;3.70;;;16.80;79.30;;;;;;5094639;28;20062;-71
2022/05/04 11:59:37;;;;;;;8.45;3.20;;;16.40;77.30;;;;;;5094632;28;20492;-71
2022/05/04 12:02:03;;;;;;;6.75;3.00;;;16.20;78.70;;;;;;5078075;28;20031;-71
2022/05/04 12:04:29;;;;;;;11.05;3.42;;;16.30;78.50;;;;;;5094674;28;20067;-71
2022/05/04 12:06:57;;;;;;;10.00;3.67;;;16.50;79.10;;;;;;5085627;28;20566;-71
2022/05/04 12:09:23;;;;;;;9.35;4.07;;;16.70;76.50;;;;;;5112534;28;20408;-71
2022/05/04 12:11:49;;;;;;;13.38;3.28;;;16.70;77.60;;;;;;5077579;28;20058;-71
2022/05/04 12:14:16;;;;;;;8.45;3.42;;;16.90;78.70;;;;;;5112982;28;20032;-71
2022/05/04 12:16:43;;;;;;;13.35;3.55;;;16.90;77.80;;;;;;5094064;28;20539;-71
2022/05/04 12:19:09;;;;;;;8.45;3.20;;;16.80;77.40;;;;;;5094494;28;20043;-71
2022/05/04 12:21:35;;;;;;;11.60;3.20;;;16.90;77.40;;;;;;5060761;28;20444;-71
2022/05/04 12:24:01;;;;;;;6.55;3.25;;;17.00;77.30;;;;;;5094503;28;20404;-71
2022/05/04 12:26:27;;;;;;;7.05;3.17;;;17.10;77.00;;;;;;5092410;28;20114;-71
2022/05/04 12:34:23;;;;;;;7.90;3.55;;;17.60;76.70;;;;;;5096367;28;20043;-71
2022/05/04 12:36:50;;;;;;;9.38;2.80;;;17.70;75.60;;;;;;5080125;28;20057;-71
2022/05/04 12:39:18;;;;;;;4.65;3.03;;;17.80;73.90;;;;;;5076759;28;20032;-71
2022/05/04 12:41:44;;;;;;;5.68;2.83;;;17.70;73.40;;;;;;5094237;28;20035;-72
2022/05/04 12:44:13;;;;;;;7.53;3.03;;;17.60;73.20;;;;;;5096473;28;20040;-71
2022/05/04 12:46:39;;;;;;;7.10;2.50;;;17.60;74.40;;;;;;5095942;28;20048;-71
2022/05/04 12:49:05;;;;;;;4.70;2.60;;;17.80;73.20;;;;;;5093844;28;20678;-71
2022/05/04 12:51:32;;;;;;;4.78;2.67;;;17.70;73.50;;;;;;5083457;28;20040;-71
2022/05/04 12:53:59;;;;;;;10.52;3.03;;;17.70;72.60;;;;;;5073356;28;20051;-71
2022/05/04 12:59:09;;;;;;;8.15;3.10;;;17.70;73.40;;;;;;5111578;28;20112;-71
2022/05/04 13:01:37;;;;;;;12.68;3.90;;;17.70;72.30;;;;;;5093540;28;20544;-71
2022/05/04 13:04:04;;;;;;;10.43;3.17;;;17.80;72.90;;;;;;5074737;28;20039;-71
2022/05/04 13:06:30;;;;;;;12.05;3.80;;;17.70;71.00;;;;;;5081442;28;20028;-72
2022/05/04 13:08:56;;;;;;;8.10;3.50;;;17.50;72.00;;;;;;5079140;28;20284;-71
2022/05/04 13:11:24;;;;;;;9.20;3.97;;;17.80;72.50;;;;;;5072720;28;20054;-71
2022/05/04 13:13:50;;;;;;;6.45;2.80;;;17.90;72.10;;;;;;5092894;28;20515;-71
2022/05/04 13:16:16;;;;;;;8.85;3.10;;;18.10;72.00;;;;;;5111339;28;20457;-72
2022/05/04 13:18:42;;;;;;;12.45;3.20;;;18.20;71.80;;;;;;5093460;28;20044;-71
2022/05/04 13:21:08;;;;;;;12.65;3.80;;;18.20;72.70;;;;;;5076205;28;20043;-71
2022/05/04 13:23:34;;;;;;;7.45;2.80;;;18.50;71.50;;;;;;5093097;28;20489;-71
2022/05/04 13:26:00;;;;;;;8.90;2.88;;;18.50;70.40;;;;;;5076531;28;20051;-71
2022/05/04 13:28:31;;;;;;;8.75;2.92;;;18.50;70.60;;;;;;5078751;28;20043;-71
2022/05/04 13:30:59;;;;;;;7.40;3.05;;;18.50;69.90;;;;;;5060325;28;20183;-72